Time;durP1;ratioP1;P1;durP2;ratioP2;P2;SDS_P1;SDS_P2;PMS_P1;PMS_P2;Temp;Humidity;BMP_temperature;BMP_pressure;BME280_temperature;BME280_humidity;BME280_pressure;Samples;Min_cycle;Max_cycle;Signal;HPM_P1;HPM_P2
2022/03/16 00:01:46;;;;;;;58.10;25.10;;;7.00;99.90;;;;;;5032039;28;20467;-50
2022/03/16 00:04:11;;;;;;;69.03;25.17;;;7.00;99.90;;;;;;5031555;28;20104;-49
2022/03/16 00:06:37;;;;;;;61.22;23.55;;;7.00;99.90;;;;;;5031960;28;20394;-50
2022/03/16 00:09:03;;;;;;;61.78;25.63;;;7.00;99.90;;;;;;5032650;28;20029;-52
2022/03/16 00:11:28;;;;;;;64.05;25.50;;;7.00;99.90;;;;;;5032923;28;20494;-51
2022/03/16 00:13:54;;;;;;;71.10;26.05;;;6.90;99.90;;;;;;5033318;28;20037;-49
2022/03/16 00:16:19;;;;;;;73.53;26.38;;;6.90;99.90;;;;;;5030246;28;20076;-49
2022/03/16 00:18:46;;;;;;;63.70;25.92;;;6.90;99.90;;;;;;5031570;28;20479;-52
2022/03/16 00:21:12;;;;;;;64.20;24.83;;;7.00;99.90;;;;;;5030118;28;20041;-50
2022/03/16 00:23:38;;;;;;;59.22;25.33;;;7.00;99.90;;;;;;5031081;28;20124;-50
2022/03/16 00:26:03;;;;;;;63.20;24.75;;;7.10;99.90;;;;;;5028581;28;20119;-51
2022/03/16 00:28:29;;;;;;;59.47;25.38;;;7.00;99.90;;;;;;5030933;28;20056;-52
2022/03/16 00:30:55;;;;;;;66.82;27.45;;;7.00;99.90;;;;;;5030743;28;20486;-49
2022/03/16 00:33:21;;;;;;;63.15;26.42;;;7.20;99.90;;;;;;5030805;28;20025;-49
2022/03/16 00:35:47;;;;;;;67.07;26.15;;;7.20;99.90;;;;;;5028792;28;20391;-49
2022/03/16 00:38:16;;;;;;;60.85;25.90;;;7.20;99.90;;;;;;5030196;28;20094;-49
2022/03/16 00:40:43;;;;;;;66.13;26.15;;;7.20;99.90;;;;;;5030548;28;20044;-49
2022/03/16 00:43:09;;;;;;;66.63;26.17;;;7.20;99.90;;;;;;5030569;28;20033;-50
2022/03/16 00:45:34;;;;;;;59.72;26.15;;;7.10;99.90;;;;;;5029545;28;20040;-51
2022/03/16 00:48:00;;;;;;;56.55;25.90;;;7.20;99.90;;;;;;5029516;28;20046;-51
2022/03/16 00:50:26;;;;;;;63.28;25.52;;;7.20;99.90;;;;;;5030634;28;20103;-52
2022/03/16 00:52:53;;;;;;;67.22;26.02;;;7.20;99.90;;;;;;5029970;28;20035;-54
2022/03/16 00:55:19;;;;;;;60.53;25.65;;;7.20;99.90;;;;;;5029629;28;20064;-50
2022/03/16 00:57:44;;;;;;;73.35;27.02;;;7.20;99.90;;;;;;5030501;28;20098;-50
2022/03/16 01:00:12;;;;;;;69.20;26.38;;;7.20;99.90;;;;;;5030508;28;20447;-50
2022/03/16 01:02:38;;;;;;;62.15;25.40;;;7.20;99.90;;;;;;5029766;28;20029;-49
2022/03/16 01:05:05;;;;;;;66.15;26.60;;;7.20;99.90;;;;;;5028745;28;20048;-50
2022/03/16 01:07:31;;;;;;;62.22;26.40;;;7.10;99.90;;;;;;5029216;28;20512;-52
2022/03/16 01:09:56;;;;;;;76.22;30.00;;;7.10;99.90;;;;;;5029103;28;20119;-55
2022/03/16 01:12:22;;;;;;;71.47;27.83;;;7.10;99.90;;;;;;5030098;28;20103;-49
2022/03/16 01:14:47;;;;;;;66.80;28.10;;;7.10;99.90;;;;;;5029520;28;20025;-50
2022/03/16 01:17:13;;;;;;;69.28;27.63;;;7.10;99.90;;;;;;5029158;28;20475;-49
2022/03/16 01:19:39;;;;;;;72.68;28.35;;;7.20;99.90;;;;;;5029718;28;20026;-50
2022/03/16 01:22:06;;;;;;;72.07;28.38;;;7.10;99.90;;;;;;5029710;28;20033;-51
2022/03/16 01:24:32;;;;;;;66.45;26.67;;;7.20;99.90;;;;;;5028258;28;20036;-50
2022/03/16 01:26:58;;;;;;;71.70;27.60;;;7.30;99.90;;;;;;5029265;28;20478;-49
2022/03/16 01:29:24;;;;;;;60.20;26.10;;;7.30;99.90;;;;;;5029123;28;20056;-53
2022/03/16 01:31:54;;;;;;;64.13;27.83;;;7.30;99.90;;;;;;5030047;28;20021;-49
2022/03/16 01:34:21;;;;;;;70.20;25.80;;;7.30;99.90;;;;;;5028865;28;20434;-51
2022/03/16 01:36:47;;;;;;;70.32;28.08;;;7.40;99.90;;;;;;5029417;28;20017;-50
2022/03/16 01:39:12;;;;;;;57.17;26.70;;;7.40;99.90;;;;;;5028844;28;20387;-49
2022/03/16 01:41:38;;;;;;;65.30;28.02;;;7.30;99.90;;;;;;5028441;28;20026;-49
2022/03/16 01:44:04;;;;;;;71.00;26.85;;;7.40;99.90;;;;;;5029365;28;20037;-51
2022/03/16 01:46:30;;;;;;;64.55;27.50;;;7.40;99.90;;;;;;5028769;28;20029;-49
2022/03/16 01:48:58;;;;;;;54.47;26.13;;;7.40;99.90;;;;;;5029628;28;20513;-52
2022/03/16 01:51:25;;;;;;;66.50;27.48;;;7.40;99.90;;;;;;5028543;28;20079;-50
2022/03/16 01:53:50;;;;;;;68.47;26.95;;;7.40;99.90;;;;;;5030072;28;20158;-51
2022/03/16 01:56:16;;;;;;;60.38;27.95;;;7.40;99.90;;;;;;5026684;28;20116;-50
2022/03/16 01:58:42;;;;;;;63.10;27.75;;;7.40;99.90;;;;;;5029324;28;20040;-50
2022/03/16 02:01:08;;;;;;;63.25;27.58;;;7.30;99.90;;;;;;5027609;28;20041;-51
2022/03/16 02:03:34;;;;;;;59.78;28.00;;;7.30;99.90;;;;;;5029476;28;20081;-49
2022/03/16 02:06:00;;;;;;;67.93;27.45;;;7.40;99.90;;;;;;5028050;28;20410;-58
2022/03/16 02:08:32;;;;;;;59.53;27.08;;;7.40;99.90;;;;;;5029407;28;20030;-52
2022/03/16 02:10:57;;;;;;;66.28;28.52;;;7.40;99.90;;;;;;5028646;28;20056;-55
2022/03/16 02:13:24;;;;;;;58.28;27.73;;;7.40;99.90;;;;;;5028998;28;20515;-51
2022/03/16 02:15:51;;;;;;;61.83;27.58;;;7.40;99.90;;;;;;5030547;28;20061;-50
2022/03/16 02:18:16;;;;;;;60.47;29.17;;;7.40;99.90;;;;;;5033113;28;20103;-50
2022/03/16 02:20:42;;;;;;;61.13;27.35;;;7.40;99.90;;;;;;5032733;28;20537;-52
2022/03/16 02:23:09;;;;;;;65.40;26.48;;;7.40;99.90;;;;;;5032968;28;20026;-52
2022/03/16 02:25:54;;;;;;;67.07;27.95;;;7.40;99.90;;;;;;5032212;28;20069;-50
2022/03/16 02:28:20;;;;;;;72.25;27.98;;;7.30;99.90;;;;;;5025569;28;20367;-49
2022/03/16 02:30:47;;;;;;;60.78;26.05;;;7.40;99.90;;;;;;5032736;28;20041;-52
2022/03/16 02:33:13;;;;;;;61.10;27.05;;;7.30;99.90;;;;;;5031842;28;20033;-52
2022/03/16 02:35:39;;;;;;;64.78;27.60;;;7.30;99.90;;;;;;5032375;28;20483;-51
2022/03/16 02:38:05;;;;;;;71.63;28.88;;;7.30;99.90;;;;;;5032205;28;20032;-50
2022/03/16 02:40:30;;;;;;;57.00;27.05;;;7.40;99.90;;;;;;5032926;28;20388;-52
2022/03/16 02:42:56;;;;;;;67.50;27.05;;;7.30;99.90;;;;;;5032153;28;20025;-55
2022/03/16 02:45:22;;;;;;;66.80;26.65;;;7.30;99.90;;;;;;5032123;28;20033;-51
2022/03/16 02:47:48;;;;;;;67.13;27.83;;;7.30;99.90;;;;;;5032152;28;20029;-52
2022/03/16 02:50:16;;;;;;;66.70;27.80;;;7.20;99.90;;;;;;5023895;28;20021;-50
2022/03/16 02:52:43;;;;;;;58.50;26.65;;;7.20;99.90;;;;;;5028347;28;20025;-51
2022/03/16 02:55:09;;;;;;;68.40;26.58;;;7.10;99.90;;;;;;5031903;28;20040;-52
2022/03/16 02:57:36;;;;;;;62.50;27.15;;;7.10;99.90;;;;;;5032773;28;20036;-52
2022/03/16 03:00:04;;;;;;;65.32;27.98;;;7.00;99.90;;;;;;5032153;28;20033;-51
2022/03/16 03:02:29;;;;;;;65.05;28.08;;;6.90;99.90;;;;;;5032427;28;20102;-50
2022/03/16 03:04:55;;;;;;;68.53;28.73;;;6.90;99.90;;;;;;5031207;28;20498;-51
2022/03/16 03:07:20;;;;;;;67.35;27.92;;;6.90;99.90;;;;;;5032361;28;20184;-51
2022/03/16 03:09:46;;;;;;;66.22;27.92;;;6.90;99.90;;;;;;5031894;28;20371;-51
2022/03/16 03:12:12;;;;;;;65.38;27.42;;;6.80;99.90;;;;;;5032190;28;20021;-48
2022/03/16 03:14:38;;;;;;;62.15;26.80;;;6.80;99.90;;;;;;5030562;28;20104;-51
2022/03/16 03:17:04;;;;;;;75.22;27.90;;;6.70;99.90;;;;;;5030790;28;20036;-51
2022/03/16 03:19:29;;;;;;;67.65;27.90;;;6.70;99.90;;;;;;5032501;28;20139;-52
2022/03/16 03:21:55;;;;;;;67.72;27.52;;;6.70;99.90;;;;;;5031539;28;20045;-56
2022/03/16 03:24:21;;;;;;;74.57;28.05;;;6.60;99.90;;;;;;5032148;28;20025;-52
2022/03/16 03:26:47;;;;;;;69.35;26.45;;;6.70;99.90;;;;;;5030798;28;20041;-50
2022/03/16 03:29:14;;;;;;;67.00;27.05;;;6.60;99.90;;;;;;5031668;28;20049;-50
2022/03/16 03:31:40;;;;;;;72.35;26.23;;;6.60;99.90;;;;;;5029704;28;20116;-52
2022/03/16 03:34:06;;;;;;;68.45;26.33;;;6.60;99.90;;;;;;5025869;28;20061;-49
2022/03/16 03:36:32;;;;;;;74.45;26.13;;;6.60;99.90;;;;;;5028656;28;20061;-52
2022/03/16 03:38:58;;;;;;;65.63;24.08;;;6.60;99.90;;;;;;5012330;28;20026;-49
2022/03/16 03:41:23;;;;;;;69.13;25.63;;;6.50;99.90;;;;;;5031688;28;20026;-49
2022/03/16 03:43:49;;;;;;;67.85;25.02;;;6.50;99.90;;;;;;5029944;28;20030;-49
2022/03/16 03:46:14;;;;;;;65.55;25.38;;;6.50;99.90;;;;;;5031166;28;20060;-50
2022/03/16 03:48:40;;;;;;;74.03;24.83;;;6.50;99.90;;;;;;5029853;28;20033;-50
2022/03/16 03:51:06;;;;;;;62.83;24.90;;;6.50;99.90;;;;;;5030101;28;20080;-53
2022/03/16 03:53:33;;;;;;;67.90;26.17;;;6.50;99.90;;;;;;5013154;28;20037;-51
2022/03/16 03:55:59;;;;;;;63.45;24.90;;;6.50;99.90;;;;;;5030053;28;20033;-51
2022/03/16 03:58:24;;;;;;;69.57;25.70;;;6.50;99.90;;;;;;5031490;28;20026;-53
2022/03/16 04:00:50;;;;;;;67.60;25.13;;;6.50;99.90;;;;;;5031378;28;20033;-52
2022/03/16 04:03:16;;;;;;;67.50;24.63;;;6.50;99.90;;;;;;5030592;28;20116;-55
2022/03/16 04:05:42;;;;;;;67.68;24.85;;;6.40;99.90;;;;;;5030853;28;20284;-54
2022/03/16 04:08:08;;;;;;;61.78;24.67;;;6.40;99.90;;;;;;5030191;28;20100;-50
2022/03/16 04:10:36;;;;;;;64.63;24.70;;;6.30;99.90;;;;;;5031261;28;20040;-51
2022/03/16 04:13:02;;;;;;;66.53;22.73;;;6.30;99.90;;;;;;5030386;28;20038;-50
2022/03/16 04:15:29;;;;;;;75.03;24.88;;;6.30;99.90;;;;;;5030968;28;20029;-48
2022/03/16 04:17:54;;;;;;;66.63;24.80;;;6.30;99.90;;;;;;5030621;28;20041;-51
2022/03/16 04:20:20;;;;;;;67.10;24.30;;;6.30;99.90;;;;;;5030634;28;20041;-56
2022/03/16 04:22:45;;;;;;;71.50;24.85;;;6.30;99.90;;;;;;5030544;28;20036;-51
2022/03/16 04:25:11;;;;;;;63.08;23.55;;;6.20;99.90;;;;;;5029306;28;20029;-51
2022/03/16 04:27:37;;;;;;;55.25;21.27;;;6.30;99.90;;;;;;5030560;28;20030;-54
2022/03/16 04:30:03;;;;;;;65.00;21.42;;;6.30;99.90;;;;;;5030804;28;20083;-51
2022/03/16 04:32:29;;;;;;;69.43;21.08;;;6.20;99.90;;;;;;5030190;28;20376;-55
2022/03/16 04:34:54;;;;;;;60.42;21.58;;;6.20;99.90;;;;;;5029721;28;20036;-52
2022/03/16 04:37:20;;;;;;;57.90;20.73;;;6.20;99.90;;;;;;5029025;28;20117;-49
2022/03/16 04:39:45;;;;;;;62.65;21.73;;;6.20;99.90;;;;;;5030594;28;20016;-50
2022/03/16 04:42:11;;;;;;;64.18;21.85;;;6.20;99.90;;;;;;5029664;28;20029;-50
2022/03/16 04:44:37;;;;;;;56.72;20.08;;;6.10;99.90;;;;;;5030483;28;20045;-52
2022/03/16 04:47:03;;;;;;;52.13;20.55;;;6.20;99.90;;;;;;5028892;28;20326;-50
2022/03/16 04:49:28;;;;;;;61.38;21.20;;;6.20;99.90;;;;;;5030716;28;20033;-52
2022/03/16 04:51:54;;;;;;;56.33;20.50;;;6.20;99.90;;;;;;5029867;28;20041;-50
2022/03/16 04:54:20;;;;;;;61.58;20.65;;;6.10;99.90;;;;;;5028795;28;20080;-50
2022/03/16 04:56:46;;;;;;;58.95;18.98;;;6.10;99.90;;;;;;5029287;28;20044;-54
2022/03/16 04:59:12;;;;;;;53.67;20.17;;;6.10;99.90;;;;;;5029811;28;20479;-54
2022/03/16 05:01:38;;;;;;;57.13;19.10;;;6.00;99.90;;;;;;5029616;28;20028;-51
2022/03/16 05:04:03;;;;;;;57.53;20.55;;;6.00;99.90;;;;;;5029875;28;20034;-54
2022/03/16 05:06:29;;;;;;;60.08;19.35;;;6.00;99.90;;;;;;5029348;28;20044;-53
2022/03/16 05:08:56;;;;;;;55.38;20.30;;;6.00;99.90;;;;;;5028426;28;20081;-55
2022/03/16 05:11:22;;;;;;;58.35;21.02;;;6.00;99.90;;;;;;5029232;28;20522;-52
2022/03/16 05:13:49;;;;;;;52.88;19.30;;;6.00;99.90;;;;;;5029460;28;20121;-55
2022/03/16 05:16:15;;;;;;;55.63;20.58;;;6.00;99.90;;;;;;5019721;28;20079;-55
2022/03/16 05:18:44;;;;;;;55.63;22.75;;;6.00;99.90;;;;;;5029928;28;20032;-54
2022/03/16 05:21:10;;;;;;;50.08;20.75;;;6.10;99.90;;;;;;5029361;28;20033;-53
2022/03/16 05:23:36;;;;;;;62.40;24.75;;;6.00;99.90;;;;;;5030376;28;20061;-56
2022/03/16 05:26:03;;;;;;;73.95;24.55;;;6.00;99.90;;;;;;5029248;28;20391;-53
2022/03/16 05:28:28;;;;;;;59.67;21.88;;;6.00;99.90;;;;;;5029906;28;20063;-53
2022/03/16 05:30:54;;;;;;;63.50;23.25;;;6.00;99.90;;;;;;5029072;28;20379;-54
2022/03/16 05:33:19;;;;;;;57.33;21.42;;;6.00;99.90;;;;;;5029429;28;20243;-53
2022/03/16 05:35:45;;;;;;;66.93;23.42;;;6.00;99.90;;;;;;5016630;28;20029;-54
2022/03/16 05:38:12;;;;;;;56.17;22.75;;;6.00;99.90;;;;;;5029165;28;20067;-53
2022/03/16 05:40:42;;;;;;;70.50;22.52;;;6.00;99.90;;;;;;5029561;28;20024;-55
2022/03/16 05:43:09;;;;;;;62.65;22.85;;;6.00;99.90;;;;;;5029655;28;20025;-52
2022/03/16 05:45:35;;;;;;;58.78;20.98;;;6.00;99.90;;;;;;5029176;28;20037;-53
2022/03/16 05:48:00;;;;;;;66.18;23.27;;;6.00;99.90;;;;;;5022568;28;20026;-54
2022/03/16 05:50:28;;;;;;;68.93;25.42;;;5.90;99.90;;;;;;5042013;28;20052;-54
2022/03/16 05:52:58;;;;;;;65.72;24.55;;;6.00;99.90;;;;;;5032023;28;20125;-56
2022/03/16 05:55:24;;;;;;;71.25;25.05;;;6.00;99.90;;;;;;5032995;28;20052;-57
2022/03/16 05:57:50;;;;;;;69.47;24.02;;;5.90;99.90;;;;;;5032581;28;20392;-54
2022/03/16 06:00:20;;;;;;;74.97;25.02;;;5.90;99.90;;;;;;5028589;28;20060;-54
2022/03/16 06:02:47;;;;;;;73.40;25.83;;;5.90;99.90;;;;;;5028978;28;20104;-54
2022/03/16 06:05:14;;;;;;;75.22;27.83;;;6.00;99.90;;;;;;5022275;28;20112;-54
2022/03/16 06:07:42;;;;;;;84.07;27.95;;;6.00;99.90;;;;;;5030085;28;20033;-54
2022/03/16 06:10:15;;;;;;;73.93;26.23;;;6.00;99.90;;;;;;5028349;28;20048;-54
2022/03/16 06:13:00;;;;;;;74.85;26.48;;;6.00;99.90;;;;;;5031470;28;20041;-55
2022/03/16 06:15:29;;;;;;;66.00;26.90;;;5.90;99.90;;;;;;5026832;28;20071;-51
2022/03/16 06:17:56;;;;;;;71.85;27.15;;;5.90;99.90;;;;;;5028123;28;20037;-51
2022/03/16 06:20:24;;;;;;;74.38;27.70;;;5.90;99.90;;;;;;5028259;28;20037;-53
2022/03/16 06:22:49;;;;;;;80.00;28.02;;;5.90;99.90;;;;;;5027777;28;20041;-52
2022/03/16 06:25:15;;;;;;;77.35;28.15;;;5.90;99.90;;;;;;5027891;28;20033;-53
2022/03/16 06:27:41;;;;;;;72.57;26.73;;;5.90;99.90;;;;;;5027946;28;20084;-54
2022/03/16 06:30:07;;;;;;;75.05;27.75;;;6.00;99.90;;;;;;5028018;28;20069;-54
2022/03/16 06:32:33;;;;;;;69.00;27.10;;;6.00;99.90;;;;;;5029296;28;20109;-53
2022/03/16 06:34:58;;;;;;;75.47;28.10;;;6.20;99.90;;;;;;5026668;28;20116;-51
2022/03/16 06:37:24;;;;;;;70.00;27.90;;;6.20;99.90;;;;;;5025043;28;20551;-52
2022/03/16 06:39:50;;;;;;;67.97;26.60;;;6.30;99.90;;;;;;5020659;28;20069;-51
2022/03/16 06:42:15;;;;;;;75.70;28.08;;;6.40;99.90;;;;;;5028917;28;20080;-52
2022/03/16 06:44:41;;;;;;;63.88;26.60;;;6.50;99.90;;;;;;5015037;28;20526;-53
2022/03/16 06:47:06;;;;;;;75.35;28.83;;;6.60;99.90;;;;;;5011007;28;20034;-57
2022/03/16 06:49:32;;;;;;;68.32;28.45;;;6.70;99.90;;;;;;5029189;28;20030;-53
2022/03/16 06:51:58;;;;;;;64.18;24.95;;;6.80;99.90;;;;;;5029308;28;20033;-57
2022/03/16 06:54:23;;;;;;;64.07;25.92;;;6.80;99.90;;;;;;5025556;28;20503;-55
2022/03/16 06:56:49;;;;;;;65.75;25.95;;;6.90;99.90;;;;;;5028413;28;20402;-55
2022/03/16 06:59:15;;;;;;;74.75;25.73;;;6.90;99.90;;;;;;5028167;28;20033;-56
2022/03/16 07:01:40;;;;;;;66.55;25.58;;;6.90;99.90;;;;;;5031227;28;20083;-54
2022/03/16 07:04:06;;;;;;;69.72;24.95;;;7.00;99.90;;;;;;5031024;28;20414;-54
2022/03/16 07:06:31;;;;;;;70.50;24.90;;;7.00;99.90;;;;;;5031922;28;20033;-55
2022/03/16 07:08:57;;;;;;;67.10;25.40;;;7.10;99.90;;;;;;5030334;28;20372;-55
2022/03/16 07:11:23;;;;;;;63.78;28.15;;;7.10;99.90;;;;;;5031991;28;20025;-54
2022/03/16 07:16:33;;;;;;;73.25;27.00;;;7.10;99.90;;;;;;5031653;28;20083;-54
2022/03/16 07:19:00;;;;;;;70.07;26.58;;;7.10;99.90;;;;;;5031241;28;20614;-55
2022/03/16 07:21:25;;;;;;;75.57;26.25;;;7.20;99.90;;;;;;5031975;28;20035;-56
2022/03/16 07:23:51;;;;;;;67.57;27.50;;;7.20;99.90;;;;;;5029075;28;20414;-55
2022/03/16 07:26:17;;;;;;;68.72;25.95;;;7.20;99.90;;;;;;5030811;28;20067;-55
2022/03/16 07:28:42;;;;;;;72.30;26.85;;;7.10;99.90;;;;;;5030810;28;20053;-55
2022/03/16 07:31:09;;;;;;;66.22;26.15;;;7.20;99.90;;;;;;5031055;28;20072;-57
2022/03/16 07:33:35;;;;;;;73.28;26.83;;;7.20;99.90;;;;;;5031316;28;20105;-53
2022/03/16 07:36:01;;;;;;;72.22;25.83;;;7.30;99.90;;;;;;5031041;28;20463;-56
2022/03/16 07:38:27;;;;;;;64.25;25.15;;;7.30;99.90;;;;;;5030675;28;20037;-53
2022/03/16 07:40:52;;;;;;;61.65;23.98;;;7.40;99.90;;;;;;5030302;28;20411;-54
2022/03/16 07:43:20;;;;;;;55.42;24.38;;;7.50;99.90;;;;;;5028558;28;20045;-52
2022/03/16 07:45:46;;;;;;;62.92;23.05;;;7.50;99.90;;;;;;5030237;28;20034;-53
2022/03/16 07:48:12;;;;;;;61.72;24.55;;;7.50;99.90;;;;;;5031446;28;20034;-53
2022/03/16 07:50:38;;;;;;;56.38;23.52;;;7.50;99.90;;;;;;5031919;28;20090;-53
2022/03/16 07:53:06;;;;;;;55.80;22.98;;;7.50;99.90;;;;;;5031582;28;20456;-52
2022/03/16 07:55:32;;;;;;;50.13;22.63;;;7.50;99.90;;;;;;5031612;28;20155;-53
2022/03/16 07:57:59;;;;;;;60.15;21.58;;;7.60;99.90;;;;;;5030410;28;20539;-56
2022/03/16 08:00:25;;;;;;;52.22;22.35;;;7.70;99.90;;;;;;5031981;28;20366;-56
2022/03/16 08:02:53;;;;;;;53.90;21.30;;;7.80;99.90;;;;;;5030982;28;20033;-54
2022/03/16 08:05:24;;;;;;;51.47;21.85;;;7.80;99.90;;;;;;5029352;28;20038;-54
2022/03/16 08:07:50;;;;;;;56.95;21.88;;;7.90;99.90;;;;;;5031192;28;20335;-54
2022/03/16 08:10:16;;;;;;;55.08;22.08;;;8.00;99.90;;;;;;5029758;28;20536;-54
2022/03/16 08:12:41;;;;;;;64.63;23.33;;;8.10;99.90;;;;;;5030246;28;20049;-52
2022/03/16 08:15:07;;;;;;;59.92;21.77;;;8.00;99.90;;;;;;5030782;28;20419;-54
2022/03/16 08:17:33;;;;;;;47.35;19.65;;;7.90;99.90;;;;;;5031779;28;20021;-53
2022/03/16 08:19:59;;;;;;;47.70;20.02;;;7.90;99.90;;;;;;5031003;28;20505;-53
2022/03/16 08:22:29;;;;;;;56.70;20.45;;;8.00;99.90;;;;;;5031769;28;20038;-57
2022/03/16 08:24:57;;;;;;;53.90;21.45;;;8.00;99.90;;;;;;5031015;28;20034;-49
2022/03/16 08:27:23;;;;;;;47.17;19.60;;;8.00;99.90;;;;;;5031045;28;20029;-53
2022/03/16 08:29:50;;;;;;;44.10;19.55;;;8.10;99.90;;;;;;5031307;28;20474;-54
2022/03/16 08:32:17;;;;;;;55.53;19.23;;;8.10;99.90;;;;;;5027931;28;20513;-53
2022/03/16 08:34:43;;;;;;;44.25;17.98;;;8.10;99.90;;;;;;5031174;28;20033;-53
2022/03/16 08:37:12;;;;;;;47.47;19.55;;;8.10;99.90;;;;;;5030152;28;20026;-51
2022/03/16 08:39:39;;;;;;;43.00;18.33;;;8.10;99.90;;;;;;5031334;28;20104;-49
2022/03/16 08:42:07;;;;;;;54.28;19.98;;;8.10;99.90;;;;;;5030246;28;20041;-49
2022/03/16 08:44:34;;;;;;;45.47;19.75;;;8.10;99.90;;;;;;5030905;28;20037;-49
2022/03/16 08:47:01;;;;;;;48.90;21.00;;;8.10;99.90;;;;;;5029635;28;20487;-54
2022/03/16 08:49:29;;;;;;;44.25;18.40;;;8.10;99.90;;;;;;5030312;28;20072;-52
2022/03/16 08:51:57;;;;;;;47.58;18.70;;;8.00;99.90;;;;;;5030555;28;20384;-53
2022/03/16 08:54:23;;;;;;;50.28;20.25;;;8.10;99.90;;;;;;5030816;28;20026;-53
2022/03/16 08:56:49;;;;;;;51.33;18.98;;;8.00;99.90;;;;;;5030095;28;20029;-52
2022/03/16 08:59:15;;;;;;;45.58;18.05;;;8.00;99.90;;;;;;5028620;28;20512;-52
2022/03/16 09:01:42;;;;;;;43.75;18.10;;;8.10;99.90;;;;;;5030465;28;20037;-52
2022/03/16 09:04:09;;;;;;;40.42;18.20;;;8.20;99.90;;;;;;5030360;28;20034;-52
2022/03/16 09:06:35;;;;;;;45.97;18.08;;;8.20;99.90;;;;;;5029844;28;20032;-52
2022/03/16 09:09:01;;;;;;;42.88;17.98;;;8.30;99.90;;;;;;5029832;28;20109;-49
2022/03/16 09:11:26;;;;;;;40.47;16.33;;;8.40;99.90;;;;;;5030366;28;20033;-49
2022/03/16 09:13:52;;;;;;;54.47;20.02;;;8.40;99.90;;;;;;5030147;28;20116;-49
2022/03/16 09:16:18;;;;;;;42.15;18.60;;;8.50;99.90;;;;;;5027444;28;20049;-49
2022/03/16 09:18:45;;;;;;;44.05;19.08;;;8.50;99.90;;;;;;5030134;28;20029;-52
2022/03/16 09:21:11;;;;;;;51.10;20.25;;;8.60;99.90;;;;;;5029827;28;20495;-54
2022/03/16 09:23:37;;;;;;;48.47;20.20;;;8.60;99.90;;;;;;5030003;28;20029;-49
2022/03/16 09:26:03;;;;;;;53.88;18.63;;;8.70;99.90;;;;;;5029079;28;20048;-50
2022/03/16 09:28:29;;;;;;;43.55;17.85;;;8.90;99.90;;;;;;5030224;28;20107;-50
2022/03/16 09:30:55;;;;;;;40.83;18.05;;;9.00;99.90;;;;;;5027404;28;20065;-50
2022/03/16 09:33:24;;;;;;;47.25;19.50;;;9.20;99.90;;;;;;5030028;28;20033;-50
2022/03/16 09:35:54;;;;;;;48.13;17.55;;;9.20;99.90;;;;;;5029030;28;20555;-50
2022/03/16 09:38:20;;;;;;;46.00;17.17;;;9.30;99.90;;;;;;5027866;28;20037;-50
2022/03/16 09:40:53;;;;;;;38.83;16.10;;;9.20;99.90;;;;;;5028558;28;20402;-52
2022/03/16 09:43:19;;;;;;;;;;;9.30;99.90;;;;;;5028542;28;20049;-49
2022/03/16 09:45:55;;;;;;;39.45;16.98;;;9.30;99.90;;;;;;5029242;28;19905;-50
2022/03/16 09:48:23;;;;;;;40.67;16.65;;;9.30;99.90;;;;;;5029843;28;20081;-51
2022/03/16 09:50:53;;;;;;;39.15;16.20;;;9.50;99.90;;;;;;5028788;28;20030;-51
2022/03/16 09:53:20;;;;;;;43.05;18.02;;;9.40;99.90;;;;;;5029742;28;20511;-49
2022/03/16 09:55:46;;;;;;;45.03;18.63;;;9.50;99.90;;;;;;5029169;28;20067;-49
2022/03/16 09:58:12;;;;;;;40.90;16.63;;;9.60;99.90;;;;;;5027790;28;20033;-52
2022/03/16 10:00:39;;;;;;;46.38;18.17;;;9.70;99.90;;;;;;5029949;28;20426;-49
2022/03/16 10:03:05;;;;;;;42.17;16.98;;;9.80;99.90;;;;;;5029189;28;20518;-51
2022/03/16 10:05:31;;;;;;;39.85;16.85;;;9.80;99.90;;;;;;5028947;28;20033;-52
2022/03/16 10:08:02;;;;;;;41.83;17.08;;;9.90;99.90;;;;;;5029568;28;20041;-50
2022/03/16 10:13:21;;;;;;;45.90;17.60;;;9.90;99.90;;;;;;5029466;28;20047;-49
2022/03/16 10:15:48;;;;;;;45.30;16.58;;;10.00;99.90;;;;;;5028892;28;20034;-52
2022/03/16 10:18:21;;;;;;;35.60;14.38;;;10.10;99.90;;;;;;5028337;28;20497;-49
2022/03/16 10:20:47;;;;;;;;;;;10.20;99.90;;;;;;5029894;28;20030;-49
2022/03/16 10:23:24;;;;;;;41.65;15.73;;;10.30;99.90;;;;;;5029087;28;20039;-49
2022/03/16 10:25:59;;;;;;;39.47;14.38;;;10.50;99.90;;;;;;5029257;28;20076;-50
2022/03/16 10:28:27;;;;;;;33.33;14.25;;;10.40;99.90;;;;;;5029374;28;20032;-50
2022/03/16 10:31:07;;;;;;;35.85;13.55;;;10.50;99.90;;;;;;5028951;28;20475;-54
2022/03/16 10:33:53;;;;;;;29.50;12.90;;;10.50;99.90;;;;;;5029602;28;20420;-49
2022/03/16 10:36:26;;;;;;;34.65;13.82;;;10.70;99.90;;;;;;5029213;28;20033;-54
2022/03/16 10:38:58;;;;;;;29.15;12.63;;;10.60;99.90;;;;;;5015250;28;20029;-51
2022/03/16 10:47:19;;;;;;;28.20;11.98;;;10.80;99.90;;;;;;5032531;28;20132;-49
2022/03/16 10:49:48;;;;;;;35.15;13.13;;;10.70;99.90;;;;;;5033045;28;20037;-51
2022/03/16 10:52:17;;;;;;;38.63;13.00;;;10.80;99.90;;;;;;5032368;28;20042;-53
2022/03/16 10:54:48;;;;;;;32.92;12.93;;;10.90;99.90;;;;;;5032996;28;20022;-52
2022/03/16 10:57:15;;;;;;;29.13;12.23;;;11.00;99.90;;;;;;5031859;28;20471;-50
2022/03/16 10:59:49;;;;;;;31.45;13.95;;;11.00;99.90;;;;;;5032678;28;20087;-51
2022/03/16 11:02:16;;;;;;;32.47;14.32;;;11.00;99.90;;;;;;5032869;28;20223;-51
2022/03/16 11:04:47;;;;;;;32.75;14.13;;;11.10;99.90;;;;;;5032449;28;20029;-52
2022/03/16 11:07:14;;;;;;;32.05;13.68;;;11.20;99.90;;;;;;5031600;28;20325;-50
2022/03/16 11:09:41;;;;;;;37.88;13.23;;;11.40;99.90;;;;;;5032525;28;20388;-52
2022/03/16 11:14:52;;;;;;;33.42;11.75;;;11.40;99.90;;;;;;5032249;28;20489;-53
2022/03/16 11:17:19;;;;;;;28.92;11.15;;;11.50;99.90;;;;;;5031749;28;20072;-52
2022/03/16 11:19:48;;;;;;;31.85;11.07;;;11.60;99.90;;;;;;5032358;28;20095;-51
2022/03/16 11:22:30;;;;;;;27.90;10.48;;;11.50;99.90;;;;;;5031439;28;20044;-53
2022/03/16 11:25:14;;;;;;;27.80;9.40;;;11.60;99.90;;;;;;5031644;28;20040;-50
2022/03/16 11:27:58;;;;;;;22.45;8.13;;;11.70;99.90;;;;;;5031904;28;20427;-49
2022/03/16 11:30:33;;;;;;;20.17;7.88;;;11.60;99.90;;;;;;5012199;28;20509;-49
2022/03/16 11:33:13;;;;;;;26.65;9.25;;;11.50;99.90;;;;;;5030377;28;20061;-50
2022/03/16 11:35:47;;;;;;;25.13;9.40;;;11.50;99.90;;;;;;5031255;28;20136;-53
2022/03/16 11:38:21;;;;;;;27.35;9.45;;;11.50;99.90;;;;;;5030243;28;20457;-51
2022/03/16 11:40:50;;;;;;;21.90;9.57;;;11.50;99.90;;;;;;5032029;28;20501;-49
2022/03/16 11:43:22;;;;;;;25.90;9.23;;;11.60;99.90;;;;;;5046553;28;20025;-50
2022/03/16 11:45:57;;;;;;;23.85;9.32;;;11.60;99.90;;;;;;5031393;28;20025;-50
2022/03/16 11:48:31;;;;;;;24.85;11.43;;;11.60;99.90;;;;;;5029797;28;20129;-53
2022/03/16 11:51:08;;;;;;;22.65;8.95;;;11.60;99.90;;;;;;5031324;28;20038;-49
2022/03/16 11:53:58;;;;;;;30.30;9.90;;;11.50;99.90;;;;;;5031701;28;20045;-51
2022/03/16 11:56:43;;;;;;;25.65;10.52;;;11.50;99.90;;;;;;5031237;28;20031;-49
2022/03/16 11:59:22;;;;;;;20.48;9.45;;;11.50;99.90;;;;;;5029809;28;20038;-50
2022/03/16 12:01:58;;;;;;;29.15;10.65;;;11.60;99.90;;;;;;5030138;28;20415;-50
2022/03/16 12:04:38;;;;;;;28.98;10.63;;;11.80;99.90;;;;;;5031517;28;20041;-51
2022/03/16 12:07:05;;;;;;;27.30;10.70;;;11.80;99.90;;;;;;5030201;28;20108;-52
2022/03/16 12:09:33;;;;;;;29.90;11.18;;;11.80;99.90;;;;;;5031420;28;20499;-48
2022/03/16 12:15:02;;;;;;;33.80;11.82;;;12.10;99.90;;;;;;5030366;28;20087;-51
2022/03/16 12:17:29;;;;;;;26.65;12.07;;;12.30;99.90;;;;;;5030731;28;20025;-53
2022/03/16 12:20:10;;;;;;;28.73;12.57;;;12.50;99.90;;;;;;5031329;28;20044;-50
2022/03/16 12:22:45;;;;;;;35.97;11.80;;;12.60;99.90;;;;;;5031261;28;20032;-49
2022/03/16 12:25:29;;;;;;;26.52;12.00;;;12.90;99.90;;;;;;5029984;28;20029;-49
2022/03/16 12:31:02;;;;;;;37.08;11.80;;;13.20;99.90;;;;;;4984235;28;20045;-49
2022/03/16 12:33:34;;;;;;;24.85;10.25;;;12.70;99.90;;;;;;5031064;28;20558;-52
2022/03/16 12:36:05;;;;;;;25.65;10.82;;;12.70;99.90;;;;;;5029830;28;20052;-54
2022/03/16 12:38:33;;;;;;;29.60;12.38;;;12.70;99.90;;;;;;5030873;28;20041;-51
2022/03/16 12:43:48;;;;;;;29.45;11.82;;;12.90;99.90;;;;;;5030082;28;20041;-52
2022/03/16 12:46:25;;;;;;;34.33;11.55;;;12.70;99.90;;;;;;5028329;28;20117;-51
2022/03/16 12:48:59;;;;;;;22.23;10.25;;;12.70;99.90;;;;;;5031011;28;20554;-54
2022/03/16 12:51:43;;;;;;;21.30;10.25;;;12.70;99.90;;;;;;5030942;28;20091;-51
2022/03/16 12:54:12;;;;;;;23.25;10.90;;;12.70;99.90;;;;;;5028857;28;20026;-50
2022/03/16 12:56:43;;;;;;;27.27;10.57;;;12.80;99.90;;;;;;5027729;28;20408;-50
2022/03/16 12:59:11;;;;;;;25.67;10.80;;;13.00;99.90;;;;;;5026770;28;20514;-53
2022/03/16 13:01:37;;;;;;;22.92;9.30;;;13.20;99.90;;;;;;5030113;28;20100;-53